createdAt,value
2023-04-09T00:01:27.326Z,4.45
2023-04-09T00:04:00.177Z,3.90
2023-04-09T00:06:32.903Z,3.90
2023-04-09T00:09:05.711Z,4.55
2023-04-09T00:11:38.387Z,3.97
2023-04-09T00:14:12.626Z,4.25
2023-04-09T00:16:45.561Z,4.53
2023-04-09T00:19:19.327Z,4.30
2023-04-09T00:21:52.532Z,4.45
2023-04-09T00:24:25.187Z,4.20
2023-04-09T00:26:57.965Z,4.00
2023-04-09T00:29:30.988Z,4.60
2023-04-09T00:32:03.636Z,4.10
2023-04-09T00:34:36.709Z,4.45
2023-04-09T00:37:09.395Z,4.35
2023-04-09T00:39:43.583Z,4.63
2023-04-09T00:44:49.801Z,4.38
2023-04-09T00:47:24.795Z,4.60
2023-04-09T00:49:57.825Z,4.78
2023-04-09T00:52:31.692Z,4.18
2023-04-09T00:55:06.603Z,4.15
2023-04-09T00:57:39.288Z,4.40
2023-04-09T01:00:15.520Z,4.43
2023-04-09T01:02:51.549Z,5.07
2023-04-09T01:05:55.937Z,4.47
2023-04-09T01:09:05.409Z,4.30
2023-04-09T01:12:09.848Z,4.78
2023-04-09T01:14:54.469Z,4.30
2023-04-09T01:18:06.562Z,4.60
2023-04-09T01:21:05.093Z,4.00
2023-04-09T01:23:56.306Z,4.93
2023-04-09T01:26:57.494Z,4.50
2023-04-09T01:29:43.287Z,4.55
2023-04-09T01:32:20.646Z,4.63
2023-04-09T01:34:55.490Z,4.70
2023-04-09T01:37:29.335Z,5.20
2023-04-09T01:40:03.072Z,4.90
2023-04-09T01:42:37.720Z,4.97
2023-04-09T01:45:12.491Z,5.05
2023-04-09T01:47:46.018Z,5.05
2023-04-09T01:50:21.023Z,4.68
2023-04-09T01:52:53.827Z,4.88
2023-04-09T01:55:26.333Z,4.93
2023-04-09T01:57:58.925Z,4.43
2023-04-09T02:00:39.933Z,4.10
2023-04-09T02:03:25.708Z,4.85
2023-04-09T02:06:15.695Z,4.70
2023-04-09T02:08:51.707Z,4.93
2023-04-09T02:11:29.452Z,4.85
2023-04-09T02:14:04.657Z,4.68
2023-04-09T02:16:39.004Z,5.28
2023-04-09T02:19:11.633Z,4.90
2023-04-09T02:21:44.422Z,4.82
2023-04-09T02:24:16.985Z,5.53
2023-04-09T02:26:49.519Z,4.45
2023-04-09T02:29:22.016Z,5.00
2023-04-09T02:31:55.266Z,5.35
2023-04-09T02:34:28.133Z,5.03
2023-04-09T02:37:00.758Z,5.07
2023-04-09T02:39:33.330Z,4.97
2023-04-09T02:42:07.758Z,5.20
2023-04-09T02:44:40.259Z,4.80
2023-04-09T02:47:12.734Z,5.63
2023-04-09T02:49:45.350Z,4.97
2023-04-09T02:52:20.108Z,5.45
2023-04-09T02:54:53.512Z,5.13
2023-04-09T02:57:25.999Z,5.22
2023-04-09T02:59:58.494Z,5.78
2023-04-09T03:02:31.105Z,5.47
2023-04-09T03:05:04.710Z,6.25
2023-04-09T03:07:37.258Z,5.28
2023-04-09T03:10:10.355Z,4.90
2023-04-09T03:12:44.539Z,6.05
2023-04-09T03:17:49.817Z,5.40
2023-04-09T03:20:22.336Z,5.32
2023-04-09T03:22:54.875Z,5.25
2023-04-09T03:25:27.597Z,6.03
2023-04-09T03:28:00.285Z,5.55
2023-04-09T03:30:32.778Z,5.38
2023-04-09T03:33:05.365Z,5.53
2023-04-09T03:35:39.029Z,5.45
2023-04-09T03:38:11.664Z,5.70
2023-04-09T03:40:44.152Z,5.20
2023-04-09T03:43:16.692Z,5.80
2023-04-09T03:45:49.388Z,5.82
2023-04-09T03:48:21.912Z,5.40
2023-04-09T03:50:54.406Z,5.80
2023-04-09T03:53:27.128Z,5.45
2023-04-09T03:56:01.522Z,5.50
2023-04-09T03:58:34.875Z,5.68
2023-04-09T04:01:07.431Z,6.10
2023-04-09T04:03:40.239Z,5.65
2023-04-09T04:06:15.311Z,5.88
2023-04-09T04:08:48.245Z,5.90
2023-04-09T04:11:20.879Z,5.80
2023-04-09T04:13:56.180Z,5.50
2023-04-09T04:16:30.029Z,5.47
2023-04-09T04:19:02.532Z,5.75
2023-04-09T04:21:35.053Z,5.47
2023-04-09T04:24:07.656Z,5.55
2023-04-09T04:26:40.427Z,5.63
2023-04-09T04:29:14.326Z,5.43
2023-04-09T04:31:48.260Z,5.90
2023-04-09T04:34:21.038Z,6.07
2023-04-09T04:36:53.616Z,5.72
2023-04-09T04:39:26.268Z,5.38
2023-04-09T04:42:01.279Z,5.50
2023-04-09T04:44:33.870Z,5.45
2023-04-09T04:47:08.016Z,5.30
2023-04-09T04:52:13.696Z,5.28
2023-04-09T04:54:46.480Z,5.60
2023-04-09T04:57:19.177Z,5.25
2023-04-09T04:59:51.806Z,5.75
2023-04-09T05:02:24.458Z,5.80
2023-04-09T05:05:01.310Z,5.85
2023-04-09T05:07:33.949Z,5.32
2023-04-09T05:10:07.661Z,5.40
2023-04-09T05:12:40.504Z,5.38
2023-04-09T05:15:14.227Z,5.47
2023-04-09T05:17:46.995Z,5.70
2023-04-09T05:20:19.999Z,5.80
2023-04-09T05:22:53.623Z,5.47
2023-04-09T05:25:26.413Z,5.85
2023-04-09T05:27:58.946Z,5.30
2023-04-09T05:30:34.255Z,5.45
2023-04-09T05:33:06.867Z,5.40
2023-04-09T05:35:41.246Z,5.40
2023-04-09T05:38:14.313Z,5.60
2023-04-09T05:40:48.971Z,5.45
2023-04-09T05:43:21.992Z,5.43
2023-04-09T05:45:54.694Z,5.35
2023-04-09T05:48:27.522Z,5.55
2023-04-09T05:51:01.347Z,5.13
2023-04-09T05:53:34.259Z,5.63
2023-04-09T05:56:16.223Z,5.25
2023-04-09T05:58:48.796Z,5.28
2023-04-09T06:01:21.863Z,5.25
2023-04-09T06:03:57.213Z,6.18
2023-04-09T06:06:32.378Z,5.22
2023-04-09T06:09:06.001Z,5.93
2023-04-09T06:11:38.996Z,5.32
2023-04-09T06:14:16.525Z,5.80
2023-04-09T06:16:49.294Z,5.72
2023-04-09T06:19:22.662Z,5.78
2023-04-09T06:21:56.143Z,5.55
2023-04-09T06:24:30.848Z,5.97
2023-04-09T06:27:04.986Z,5.50
2023-04-09T06:32:12.519Z,4.85
2023-04-09T06:34:45.188Z,5.30
2023-04-09T06:37:17.828Z,4.68
2023-04-09T06:40:00.383Z,5.15
2023-04-09T06:42:35.500Z,5.05
2023-04-09T06:45:08.956Z,4.97
2023-04-09T06:47:42.725Z,5.45
2023-04-09T06:50:15.666Z,5.22
2023-04-09T06:52:48.468Z,5.20
2023-04-09T06:55:22.097Z,5.45
2023-04-09T06:57:54.762Z,5.28
2023-04-09T07:00:27.434Z,4.97
2023-04-09T07:03:00.882Z,5.20
2023-04-09T07:05:33.540Z,4.63
2023-04-09T07:08:06.287Z,6.00
2023-04-09T07:10:38.906Z,5.00
2023-04-09T07:13:13.048Z,4.72
2023-04-09T07:18:20.034Z,5.13
2023-04-09T07:20:53.300Z,5.50
2023-04-09T07:23:26.404Z,4.90
2023-04-09T07:26:04.065Z,5.53
2023-04-09T07:28:36.785Z,5.07
2023-04-09T07:31:09.538Z,4.70
2023-04-09T07:33:45.768Z,5.70
2023-04-09T07:36:18.293Z,5.05
2023-04-09T07:38:51.249Z,5.22
2023-04-09T07:41:24.210Z,5.50
2023-04-09T07:43:56.763Z,5.10
2023-04-09T07:46:30.082Z,5.10
2023-04-09T07:49:04.057Z,5.00
2023-04-09T07:51:36.955Z,5.30
2023-04-09T07:54:09.465Z,4.63
2023-04-09T07:56:42.086Z,5.53
2023-04-09T07:59:17.753Z,5.20
2023-04-09T08:01:50.551Z,4.60
2023-04-09T08:04:23.847Z,5.50
2023-04-09T08:06:56.708Z,5.22
2023-04-09T08:09:29.304Z,5.45
2023-04-09T08:12:02.323Z,6.20
2023-04-09T08:14:35.166Z,5.85
2023-04-09T08:17:07.951Z,6.07
2023-04-09T08:19:43.473Z,5.70
2023-04-09T08:22:16.197Z,5.90
2023-04-09T08:24:54.014Z,6.28
2023-04-09T08:27:27.311Z,6.10
2023-04-09T08:29:59.975Z,7.10
2023-04-09T08:32:34.159Z,5.80
2023-04-09T08:35:07.451Z,6.20
2023-04-09T08:37:40.112Z,6.23
2023-04-09T08:40:12.813Z,6.10
2023-04-09T08:42:48.276Z,5.35
2023-04-09T08:45:25.493Z,6.18
2023-04-09T08:48:03.663Z,5.82
2023-04-09T08:50:37.481Z,6.60
2023-04-09T08:53:11.175Z,6.28
2023-04-09T08:55:48.988Z,5.95
2023-04-09T08:58:21.717Z,6.00
2023-04-09T09:00:54.247Z,6.72
2023-04-09T09:03:27.184Z,5.90
2023-04-09T09:06:00.194Z,6.28
2023-04-09T09:08:35.611Z,5.72
2023-04-09T09:11:08.174Z,6.25
2023-04-09T09:13:41.091Z,6.25
2023-04-09T09:16:16.815Z,6.18
2023-04-09T09:18:49.964Z,5.63
2023-04-09T09:21:24.465Z,6.50
2023-04-09T09:23:58.256Z,6.25
2023-04-09T09:26:38.526Z,5.55
2023-04-09T09:29:12.171Z,5.50
2023-04-09T09:31:51.067Z,6.15
2023-04-09T09:34:25.952Z,5.78
2023-04-09T09:36:58.703Z,5.70
2023-04-09T09:39:46.670Z,5.55
2023-04-09T09:42:20.036Z,5.28
2023-04-09T09:44:56.376Z,5.47
2023-04-09T09:47:31.797Z,5.70
2023-04-09T09:50:04.985Z,5.63
2023-04-09T09:52:40.152Z,5.88
2023-04-09T09:55:18.475Z,5.20
2023-04-09T09:57:53.223Z,5.28
2023-04-09T10:00:29.017Z,5.68
2023-04-09T10:03:16.316Z,5.25
2023-04-09T10:05:50.710Z,5.80
2023-04-09T10:08:26.030Z,6.38
2023-04-09T10:11:00.859Z,5.95
2023-04-09T10:13:43.663Z,4.97
2023-04-09T10:16:19.244Z,4.97
2023-04-09T10:18:57.069Z,5.63
2023-04-09T10:21:54.702Z,5.50
2023-04-09T10:24:27.462Z,5.80
2023-04-09T10:27:16.714Z,5.18
2023-04-09T10:29:53.681Z,4.90
2023-04-09T10:32:27.975Z,4.70
2023-04-09T10:35:04.224Z,4.88
2023-04-09T10:37:36.844Z,4.95
2023-04-09T10:40:21.800Z,5.03
2023-04-09T10:42:58.596Z,4.93
2023-04-09T10:45:54.429Z,4.88
2023-04-09T10:48:29.112Z,4.60
2023-04-09T10:51:05.807Z,4.75
2023-04-09T10:53:38.904Z,5.38
2023-04-09T10:56:17.512Z,5.13
2023-04-09T10:58:51.641Z,4.53
2023-04-09T11:01:27.321Z,4.50
2023-04-09T11:04:16.521Z,4.78
2023-04-09T11:06:50.583Z,4.32
2023-04-09T11:09:24.765Z,4.43
2023-04-09T11:11:57.831Z,4.85
2023-04-09T11:14:30.728Z,4.50
2023-04-09T11:17:03.945Z,4.68
2023-04-09T11:19:42.650Z,4.40
2023-04-09T11:22:22.808Z,4.40
2023-04-09T11:24:55.320Z,4.53
2023-04-09T11:27:27.978Z,4.32
2023-04-09T11:30:02.226Z,3.72
2023-04-09T11:32:35.025Z,4.57
2023-04-09T11:35:13.814Z,3.90
2023-04-09T11:37:47.643Z,4.18
2023-04-09T11:40:23.600Z,4.03
2023-04-09T11:42:57.326Z,4.38
2023-04-09T11:45:32.409Z,3.95
2023-04-09T11:48:05.651Z,3.75
2023-04-09T11:50:38.398Z,3.80
2023-04-09T11:53:22.648Z,3.75
2023-04-09T11:55:56.089Z,3.75
2023-04-09T11:58:29.872Z,4.28
2023-04-09T12:01:02.563Z,3.95
2023-04-09T12:03:38.463Z,3.88
2023-04-09T12:06:11.309Z,4.30
2023-04-09T12:08:43.910Z,3.70
2023-04-09T12:11:16.622Z,4.03
2023-04-09T12:13:49.538Z,3.97
2023-04-09T12:16:22.289Z,3.78
2023-04-09T12:18:55.817Z,3.55
2023-04-09T12:21:49.470Z,3.53
2023-04-09T12:24:26.442Z,3.30
2023-04-09T12:26:59.316Z,3.85
2023-04-09T12:29:33.705Z,3.60
2023-04-09T12:32:07.133Z,3.63
2023-04-09T12:34:39.907Z,3.67
2023-04-09T12:37:12.786Z,3.40
2023-04-09T12:39:46.113Z,3.40
2023-04-09T12:42:18.920Z,3.50
2023-04-09T12:44:51.837Z,3.47
2023-04-09T12:47:24.969Z,3.38
2023-04-09T12:49:58.895Z,3.33
2023-04-09T12:52:31.969Z,3.10
2023-04-09T12:55:06.587Z,3.78
2023-04-09T12:57:42.408Z,3.38
2023-04-09T13:00:16.551Z,3.53
2023-04-09T13:02:51.678Z,3.30
2023-04-09T13:05:24.701Z,3.53
2023-04-09T13:07:57.242Z,3.30
2023-04-09T13:10:31.270Z,3.08
2023-04-09T13:13:03.959Z,3.22
2023-04-09T13:15:36.716Z,3.33
2023-04-09T13:18:09.817Z,3.20
2023-04-09T13:20:42.679Z,3.15
2023-04-09T13:23:15.497Z,3.15
2023-04-09T13:25:48.054Z,3.33
2023-04-09T13:28:20.655Z,3.38
2023-04-09T13:30:53.559Z,3.13
2023-04-09T13:33:26.311Z,3.17
2023-04-09T13:35:59.035Z,2.88
2023-04-09T13:38:34.184Z,3.00
2023-04-09T13:41:06.898Z,3.13
2023-04-09T13:43:39.458Z,3.25
2023-04-09T13:46:13.697Z,2.90
2023-04-09T13:48:46.459Z,2.78
2023-04-09T13:51:19.307Z,2.92
2023-04-09T13:53:52.720Z,2.85
2023-04-09T13:56:27.316Z,2.80
2023-04-09T13:59:00.046Z,3.10
2023-04-09T14:01:32.980Z,3.05
2023-04-09T14:04:05.971Z,3.00
2023-04-09T14:06:38.835Z,2.78
2023-04-09T14:09:11.922Z,2.65
2023-04-09T14:11:44.518Z,3.00
2023-04-09T14:14:17.792Z,2.88
2023-04-09T14:16:50.704Z,2.97
2023-04-09T14:19:44.667Z,2.80
2023-04-09T14:22:18.852Z,2.70
2023-04-09T14:24:52.132Z,2.97
2023-04-09T14:27:26.289Z,2.60
2023-04-09T14:29:58.834Z,2.80
2023-04-09T14:32:33.211Z,2.88
2023-04-09T14:35:06.688Z,2.95
2023-04-09T14:37:40.922Z,2.67
2023-04-09T14:40:16.664Z,2.63
2023-04-09T14:42:50.721Z,2.92
2023-04-09T14:47:56.403Z,2.65
2023-04-09T14:50:32.378Z,2.83
2023-04-09T14:53:05.155Z,2.33
2023-04-09T14:55:38.792Z,2.50
2023-04-09T14:58:11.930Z,2.60
2023-04-09T15:00:45.126Z,2.60
2023-04-09T15:03:17.938Z,3.03
2023-04-09T15:05:52.095Z,2.88
2023-04-09T15:08:24.877Z,2.63
2023-04-09T15:10:57.418Z,2.90
2023-04-09T15:13:30.347Z,2.60
2023-04-09T15:16:02.991Z,2.80
2023-04-09T15:18:37.720Z,2.83
2023-04-09T15:21:11.778Z,2.58
2023-04-09T15:26:17.638Z,2.45
2023-04-09T15:28:50.350Z,2.92
2023-04-09T15:31:23.085Z,2.60
2023-04-09T15:33:55.890Z,2.65
2023-04-09T15:36:30.192Z,2.35
2023-04-09T15:39:22.608Z,2.47
2023-04-09T15:41:58.914Z,2.38
2023-04-09T15:44:31.769Z,2.53
2023-04-09T15:47:04.570Z,2.47
2023-04-09T15:49:37.163Z,2.60
2023-04-09T15:52:10.963Z,2.40
2023-04-09T15:54:43.522Z,2.47
2023-04-09T15:57:16.173Z,2.25
2023-04-09T15:59:48.906Z,2.58
2023-04-09T16:02:23.473Z,2.63
2023-04-09T16:04:57.364Z,2.30
2023-04-09T16:07:37.832Z,2.40
2023-04-09T16:10:14.796Z,2.20
2023-04-09T16:12:47.485Z,2.20
2023-04-09T16:15:20.709Z,2.40
2023-04-09T16:17:53.628Z,2.40
2023-04-09T16:20:26.583Z,2.35
2023-04-09T16:22:59.672Z,2.38
2023-04-09T16:25:32.361Z,2.30
2023-04-09T16:28:08.812Z,2.20
2023-04-09T16:30:43.846Z,2.10
2023-04-09T16:33:17.360Z,2.22
2023-04-09T16:35:50.659Z,2.22
2023-04-09T16:38:24.614Z,2.22
2023-04-09T16:40:58.264Z,2.10
2023-04-09T16:43:30.980Z,2.72
2023-04-09T16:46:06.405Z,2.30
2023-04-09T16:48:48.887Z,2.22
2023-04-09T16:51:30.051Z,2.13
2023-04-09T16:54:03.147Z,3.30
2023-04-09T16:56:38.237Z,4.85
2023-04-09T16:59:12.107Z,5.22
2023-04-09T17:01:44.713Z,4.35
2023-04-09T17:04:21.207Z,4.45
2023-04-09T17:06:54.270Z,3.97
2023-04-09T17:09:27.032Z,3.72
2023-04-09T17:11:59.590Z,3.88
2023-04-09T17:14:38.804Z,3.08
2023-04-09T17:17:11.992Z,4.13
2023-04-09T17:19:44.611Z,3.30
2023-04-09T17:22:17.914Z,3.10
2023-04-09T17:24:50.500Z,3.05
2023-04-09T17:27:23.060Z,3.33
2023-04-09T17:29:55.703Z,3.20
2023-04-09T17:32:28.669Z,3.25
2023-04-09T17:35:03.471Z,3.20
2023-04-09T17:37:38.048Z,3.40
2023-04-09T17:40:12.928Z,2.85
2023-04-09T17:42:46.761Z,2.90
2023-04-09T17:45:19.392Z,3.05
2023-04-09T17:47:52.136Z,2.90
2023-04-09T17:50:24.976Z,2.88
2023-04-09T17:52:57.592Z,2.92
2023-04-09T17:55:30.690Z,3.15
2023-04-09T17:58:03.692Z,2.72
2023-04-09T18:00:36.208Z,3.22
2023-04-09T18:03:09.943Z,3.20
2023-04-09T18:05:43.251Z,2.97
2023-04-09T18:08:16.029Z,2.80
2023-04-09T18:11:05.102Z,2.65
2023-04-09T18:13:44.547Z,2.60
2023-04-09T18:16:19.562Z,2.80
2023-04-09T18:18:53.037Z,2.80
2023-04-09T18:21:28.478Z,2.90
2023-04-09T18:24:01.187Z,2.63
2023-04-09T18:26:37.080Z,2.80
2023-04-09T18:29:09.869Z,2.25
2023-04-09T18:31:42.752Z,2.60
2023-04-09T18:34:16.063Z,2.65
2023-04-09T18:36:49.547Z,2.40
2023-04-09T18:39:22.752Z,2.60
2023-04-09T18:41:55.500Z,2.80
2023-04-09T18:44:33.830Z,2.40
2023-04-09T18:47:09.479Z,2.25
2023-04-09T18:49:42.184Z,2.30
2023-04-09T18:52:14.967Z,2.38
2023-04-09T18:54:50.784Z,2.63
2023-04-09T18:57:23.362Z,2.45
2023-04-09T18:59:55.977Z,2.47
2023-04-09T19:02:30.262Z,2.50
2023-04-09T19:05:07.087Z,2.90
2023-04-09T19:07:40.147Z,2.53
2023-04-09T19:10:13.363Z,2.50
2023-04-09T19:12:50.881Z,2.43
2023-04-09T19:15:26.382Z,1.95
2023-04-09T19:17:58.985Z,2.35
2023-04-09T19:20:31.816Z,2.42
2023-04-09T19:23:06.477Z,2.33
2023-04-09T19:25:39.206Z,2.20
2023-04-09T19:28:12.897Z,2.42
2023-04-09T19:30:45.782Z,2.38
2023-04-09T19:33:21.514Z,2.30
2023-04-09T19:35:55.929Z,2.53
2023-04-09T19:38:28.614Z,2.40
2023-04-09T19:41:03.138Z,2.30
2023-04-09T19:43:39.118Z,2.50
2023-04-09T19:46:13.279Z,2.20
2023-04-09T19:48:48.221Z,2.30
2023-04-09T19:51:24.007Z,2.17
2023-04-09T19:54:02.743Z,2.28
2023-04-09T19:56:36.039Z,2.22
2023-04-09T19:59:08.984Z,2.38
2023-04-09T20:01:41.601Z,2.08
2023-04-09T20:04:15.972Z,2.65
2023-04-09T20:06:54.848Z,2.40
2023-04-09T20:09:29.245Z,2.20
2023-04-09T20:12:06.701Z,2.40
2023-04-09T20:14:42.608Z,2.70
2023-04-09T20:17:18.856Z,2.22
2023-04-09T20:19:51.833Z,2.50
2023-04-09T20:22:24.609Z,2.58
2023-04-09T20:25:07.228Z,2.58
2023-04-09T20:27:44.750Z,2.40
2023-04-09T20:30:18.007Z,2.70
2023-04-09T20:32:50.699Z,2.45
2023-04-09T20:35:23.488Z,2.70
2023-04-09T20:38:01.402Z,2.42
2023-04-09T20:40:37.341Z,2.88
2023-04-09T20:43:10.939Z,2.60
2023-04-09T20:45:43.490Z,2.70
2023-04-09T20:48:18.505Z,2.40
2023-04-09T20:50:52.373Z,2.50
2023-04-09T20:53:25.047Z,2.67
2023-04-09T20:55:57.772Z,2.63
2023-04-09T20:58:31.508Z,2.50
2023-04-09T21:01:09.622Z,2.20
2023-04-09T21:03:42.732Z,2.63
2023-04-09T21:06:17.971Z,2.60
2023-04-09T21:08:51.708Z,2.50
2023-04-09T21:11:26.549Z,2.60
2023-04-09T21:13:59.492Z,2.50
2023-04-09T21:16:32.548Z,2.40
2023-04-09T21:19:11.651Z,2.35
2023-04-09T21:21:44.381Z,2.30
2023-04-09T21:24:19.407Z,2.60
2023-04-09T21:26:52.552Z,2.55
2023-04-09T21:29:26.363Z,2.55
2023-04-09T21:31:58.919Z,2.50
2023-04-09T21:34:31.546Z,2.28
2023-04-09T21:37:04.124Z,2.38
2023-04-09T21:39:36.715Z,2.63
2023-04-09T21:42:12.361Z,2.58
2023-04-09T21:44:48.643Z,2.78
2023-04-09T21:47:23.834Z,2.30
2023-04-09T21:49:56.784Z,2.45
2023-04-09T21:52:29.351Z,2.47
2023-04-09T21:55:02.057Z,2.50
2023-04-09T21:57:34.673Z,2.38
2023-04-09T22:00:10.438Z,2.60
2023-04-09T22:02:43.292Z,2.70
2023-04-09T22:05:16.056Z,2.60
2023-04-09T22:07:48.658Z,2.40
2023-04-09T22:10:21.879Z,2.20
2023-04-09T22:12:54.831Z,2.60
2023-04-09T22:15:27.354Z,2.53
2023-04-09T22:17:59.885Z,2.47
2023-04-09T22:20:32.439Z,2.70
2023-04-09T22:23:04.972Z,2.60
2023-04-09T22:25:43.883Z,2.53
2023-04-09T22:28:16.406Z,2.50
2023-04-09T22:30:48.886Z,2.63
2023-04-09T22:33:21.502Z,2.42
2023-04-09T22:36:02.219Z,2.25
2023-04-09T22:38:34.879Z,2.25
2023-04-09T22:41:07.445Z,2.33
2023-04-09T22:43:39.965Z,2.28
2023-04-09T22:46:12.663Z,2.40
2023-04-09T22:48:46.623Z,2.25
2023-04-09T22:51:19.210Z,2.03
2023-04-09T22:53:51.753Z,2.10
2023-04-09T22:56:24.432Z,2.10
2023-04-09T22:58:56.991Z,2.22
2023-04-09T23:01:37.780Z,2.35
2023-04-09T23:04:10.375Z,2.03
2023-04-09T23:06:43.056Z,2.20
2023-04-09T23:09:15.591Z,2.20
2023-04-09T23:11:48.180Z,2.20
2023-04-09T23:14:20.955Z,2.20
2023-04-09T23:16:53.617Z,2.58
2023-04-09T23:19:26.266Z,2.08
2023-04-09T23:21:58.877Z,2.25
2023-04-09T23:24:31.437Z,2.38
2023-04-09T23:27:04.003Z,2.20
2023-04-09T23:29:36.783Z,2.03
2023-04-09T23:32:09.321Z,2.28
2023-04-09T23:34:41.768Z,2.40
2023-04-09T23:37:14.272Z,2.20
2023-04-09T23:39:48.200Z,2.33
2023-04-09T23:42:20.769Z,2.17
2023-04-09T23:44:53.274Z,2.15
2023-04-09T23:47:26.166Z,2.20
2023-04-09T23:50:04.938Z,2.20
2023-04-09T23:52:38.484Z,2.15
2023-04-09T23:55:12.007Z,2.05
2023-04-09T23:57:44.894Z,2.20
